sensor_id;sensor_type;location;lat;lon;timestamp;P1;durP1;ratioP1;P2;durP2;ratioP2
13051;SDS011;6592;47.484;9.726;2023-11-21T00:00:14;6.43;;;1.60;;
13051;SDS011;6592;47.484;9.726;2023-11-21T00:02:44;5.00;;;1.55;;
13051;SDS011;6592;47.484;9.726;2023-11-21T00:05:13;5.95;;;1.55;;
13051;SDS011;6592;47.484;9.726;2023-11-21T00:07:43;9.60;;;1.60;;
13051;SDS011;6592;47.484;9.726;2023-11-21T00:10:11;3.45;;;1.30;;
13051;SDS011;6592;47.484;9.726;2023-11-21T00:12:44;5.55;;;1.30;;
13051;SDS011;6592;47.484;9.726;2023-11-21T00:15:14;3.60;;;1.40;;
13051;SDS011;6592;47.484;9.726;2023-11-21T00:17:43;2.90;;;1.13;;
13051;SDS011;6592;47.484;9.726;2023-11-21T00:20:11;6.20;;;1.17;;
13051;SDS011;6592;47.484;9.726;2023-11-21T00:22:40;5.53;;;1.52;;
13051;SDS011;6592;47.484;9.726;2023-11-21T00:25:10;5.72;;;1.33;;
13051;SDS011;6592;47.484;9.726;2023-11-21T00:27:41;5.57;;;1.20;;
13051;SDS011;6592;47.484;9.726;2023-11-21T00:30:13;4.93;;;1.00;;
13051;SDS011;6592;47.484;9.726;2023-11-21T00:32:42;8.82;;;1.50;;
13051;SDS011;6592;47.484;9.726;2023-11-21T00:35:11;4.18;;;1.33;;
13051;SDS011;6592;47.484;9.726;2023-11-21T00:37:40;3.40;;;1.10;;
13051;SDS011;6592;47.484;9.726;2023-11-21T00:40:09;4.05;;;1.30;;
13051;SDS011;6592;47.484;9.726;2023-11-21T00:42:43;4.30;;;1.00;;
13051;SDS011;6592;47.484;9.726;2023-11-21T00:45:12;6.63;;;1.50;;
13051;SDS011;6592;47.484;9.726;2023-11-21T00:47:42;5.03;;;1.60;;
13051;SDS011;6592;47.484;9.726;2023-11-21T00:50:11;5.55;;;1.60;;
13051;SDS011;6592;47.484;9.726;2023-11-21T00:52:40;6.05;;;1.50;;
13051;SDS011;6592;47.484;9.726;2023-11-21T00:55:08;6.55;;;1.67;;
13051;SDS011;6592;47.484;9.726;2023-11-21T00:57:38;3.90;;;1.20;;
13051;SDS011;6592;47.484;9.726;2023-11-21T01:00:09;5.20;;;1.40;;
13051;SDS011;6592;47.484;9.726;2023-11-21T01:02:40;4.22;;;1.00;;
13051;SDS011;6592;47.484;9.726;2023-11-21T01:05:09;4.72;;;1.20;;
13051;SDS011;6592;47.484;9.726;2023-11-21T01:07:38;5.15;;;1.35;;
13051;SDS011;6592;47.484;9.726;2023-11-21T01:10:07;3.78;;;1.33;;
13051;SDS011;6592;47.484;9.726;2023-11-21T01:12:36;6.03;;;1.40;;
13051;SDS011;6592;47.484;9.726;2023-11-21T01:15:06;6.65;;;1.98;;
13051;SDS011;6592;47.484;9.726;2023-11-21T01:17:38;3.83;;;1.27;;
13051;SDS011;6592;47.484;9.726;2023-11-21T01:20:08;4.55;;;1.40;;
13051;SDS011;6592;47.484;9.726;2023-11-21T01:22:39;3.20;;;1.20;;
13051;SDS011;6592;47.484;9.726;2023-11-21T01:25:08;4.30;;;1.10;;
13051;SDS011;6592;47.484;9.726;2023-11-21T01:27:37;3.53;;;1.25;;
13051;SDS011;6592;47.484;9.726;2023-11-21T01:30:06;2.85;;;1.30;;
13051;SDS011;6592;47.484;9.726;2023-11-21T01:32:38;3.92;;;0.95;;
13051;SDS011;6592;47.484;9.726;2023-11-21T01:35:07;4.35;;;1.20;;
13051;SDS011;6592;47.484;9.726;2023-11-21T01:37:36;3.20;;;1.02;;
13051;SDS011;6592;47.484;9.726;2023-11-21T01:40:06;8.38;;;1.45;;
13051;SDS011;6592;47.484;9.726;2023-11-21T01:42:36;6.03;;;1.30;;
13051;SDS011;6592;47.484;9.726;2023-11-21T01:45:05;4.13;;;1.35;;
13051;SDS011;6592;47.484;9.726;2023-11-21T01:47:36;6.88;;;1.58;;
13051;SDS011;6592;47.484;9.726;2023-11-21T01:50:08;4.18;;;1.10;;
13051;SDS011;6592;47.484;9.726;2023-11-21T01:52:39;5.50;;;1.27;;
13051;SDS011;6592;47.484;9.726;2023-11-21T01:55:08;4.47;;;1.10;;
13051;SDS011;6592;47.484;9.726;2023-11-21T01:57:37;3.10;;;1.17;;
13051;SDS011;6592;47.484;9.726;2023-11-21T02:00:06;4.53;;;1.20;;
13051;SDS011;6592;47.484;9.726;2023-11-21T02:02:42;4.80;;;1.35;;
13051;SDS011;6592;47.484;9.726;2023-11-21T02:05:13;5.32;;;1.27;;
13051;SDS011;6592;47.484;9.726;2023-11-21T02:07:44;4.28;;;1.20;;
13051;SDS011;6592;47.484;9.726;2023-11-21T02:10:15;4.25;;;1.20;;
13051;SDS011;6592;47.484;9.726;2023-11-21T02:12:44;8.35;;;1.25;;
13051;SDS011;6592;47.484;9.726;2023-11-21T02:15:13;7.53;;;1.20;;
13051;SDS011;6592;47.484;9.726;2023-11-21T02:17:46;5.82;;;1.20;;
13051;SDS011;6592;47.484;9.726;2023-11-21T02:20:20;4.35;;;1.30;;
13051;SDS011;6592;47.484;9.726;2023-11-21T02:22:53;2.42;;;1.00;;
13051;SDS011;6592;47.484;9.726;2023-11-21T02:25:25;3.75;;;1.20;;
13051;SDS011;6592;47.484;9.726;2023-11-21T02:27:55;4.60;;;1.30;;
13051;SDS011;6592;47.484;9.726;2023-11-21T02:30:25;4.78;;;1.60;;
13051;SDS011;6592;47.484;9.726;2023-11-21T02:32:55;5.93;;;1.20;;
13051;SDS011;6592;47.484;9.726;2023-11-21T02:35:24;4.50;;;1.20;;
13051;SDS011;6592;47.484;9.726;2023-11-21T02:37:55;5.13;;;1.30;;
13051;SDS011;6592;47.484;9.726;2023-11-21T02:40:23;4.18;;;1.10;;
13051;SDS011;6592;47.484;9.726;2023-11-21T02:42:53;3.63;;;1.40;;
13051;SDS011;6592;47.484;9.726;2023-11-21T02:45:24;5.23;;;1.17;;
13051;SDS011;6592;47.484;9.726;2023-11-21T02:47:52;3.38;;;0.90;;
13051;SDS011;6592;47.484;9.726;2023-11-21T02:50:25;4.03;;;1.27;;
13051;SDS011;6592;47.484;9.726;2023-11-21T02:52:56;2.90;;;1.02;;
13051;SDS011;6592;47.484;9.726;2023-11-21T02:55:27;3.50;;;1.23;;
13051;SDS011;6592;47.484;9.726;2023-11-21T02:57:55;5.63;;;1.30;;
13051;SDS011;6592;47.484;9.726;2023-11-21T03:00:24;3.20;;;0.93;;
13051;SDS011;6592;47.484;9.726;2023-11-21T03:02:54;3.25;;;1.00;;
13051;SDS011;6592;47.484;9.726;2023-11-21T03:05:24;6.18;;;0.90;;
13051;SDS011;6592;47.484;9.726;2023-11-21T03:07:52;4.95;;;1.08;;
13051;SDS011;6592;47.484;9.726;2023-11-21T03:10:22;3.90;;;0.60;;
13051;SDS011;6592;47.484;9.726;2023-11-21T03:12:51;3.80;;;0.70;;
13051;SDS011;6592;47.484;9.726;2023-11-21T03:15:20;3.70;;;0.80;;
13051;SDS011;6592;47.484;9.726;2023-11-21T03:17:48;2.92;;;0.77;;
13051;SDS011;6592;47.484;9.726;2023-11-21T03:20:17;3.65;;;0.70;;
13051;SDS011;6592;47.484;9.726;2023-11-21T03:22:46;3.50;;;0.70;;
13051;SDS011;6592;47.484;9.726;2023-11-21T03:25:15;3.72;;;0.63;;
13051;SDS011;6592;47.484;9.726;2023-11-21T03:27:47;3.65;;;0.65;;
13051;SDS011;6592;47.484;9.726;2023-11-21T03:30:16;2.10;;;0.70;;
13051;SDS011;6592;47.484;9.726;2023-11-21T03:32:44;2.92;;;0.90;;
13051;SDS011;6592;47.484;9.726;2023-11-21T03:35:13;5.00;;;1.20;;
13051;SDS011;6592;47.484;9.726;2023-11-21T03:37:41;3.22;;;0.77;;
13051;SDS011;6592;47.484;9.726;2023-11-21T03:40:10;2.25;;;0.73;;
13051;SDS011;6592;47.484;9.726;2023-11-21T03:42:40;2.63;;;0.90;;
13051;SDS011;6592;47.484;9.726;2023-11-21T03:45:11;8.93;;;1.30;;
13051;SDS011;6592;47.484;9.726;2023-11-21T03:47:41;3.88;;;0.90;;
13051;SDS011;6592;47.484;9.726;2023-11-21T03:50:10;3.65;;;1.13;;
13051;SDS011;6592;47.484;9.726;2023-11-21T03:52:38;3.28;;;0.75;;
13051;SDS011;6592;47.484;9.726;2023-11-21T03:55:07;8.52;;;1.27;;
13051;SDS011;6592;47.484;9.726;2023-11-21T03:57:36;8.20;;;1.23;;
13051;SDS011;6592;47.484;9.726;2023-11-21T04:00:05;3.08;;;0.80;;
13051;SDS011;6592;47.484;9.726;2023-11-21T04:02:38;4.05;;;0.70;;
13051;SDS011;6592;47.484;9.726;2023-11-21T04:05:07;4.57;;;0.90;;
13051;SDS011;6592;47.484;9.726;2023-11-21T04:07:36;4.53;;;0.70;;
13051;SDS011;6592;47.484;9.726;2023-11-21T04:10:06;3.53;;;0.70;;
13051;SDS011;6592;47.484;9.726;2023-11-21T04:12:36;4.07;;;0.55;;
13051;SDS011;6592;47.484;9.726;2023-11-21T04:15:05;4.03;;;0.60;;
13051;SDS011;6592;47.484;9.726;2023-11-21T04:17:36;4.22;;;0.85;;
13051;SDS011;6592;47.484;9.726;2023-11-21T04:20:06;4.10;;;1.00;;
13051;SDS011;6592;47.484;9.726;2023-11-21T04:22:37;3.17;;;0.90;;
13051;SDS011;6592;47.484;9.726;2023-11-21T04:25:11;4.60;;;0.80;;
13051;SDS011;6592;47.484;9.726;2023-11-21T04:27:41;4.75;;;0.90;;
13051;SDS011;6592;47.484;9.726;2023-11-21T04:30:12;3.08;;;0.85;;
13051;SDS011;6592;47.484;9.726;2023-11-21T04:32:42;3.70;;;1.10;;
13051;SDS011;6592;47.484;9.726;2023-11-21T04:35:11;4.82;;;0.90;;
13051;SDS011;6592;47.484;9.726;2023-11-21T04:37:40;4.72;;;1.05;;
13051;SDS011;6592;47.484;9.726;2023-11-21T04:40:10;5.55;;;0.88;;
13051;SDS011;6592;47.484;9.726;2023-11-21T04:42:39;2.80;;;0.65;;
13051;SDS011;6592;47.484;9.726;2023-11-21T04:45:08;6.28;;;0.93;;
13051;SDS011;6592;47.484;9.726;2023-11-21T04:47:39;3.28;;;0.90;;
13051;SDS011;6592;47.484;9.726;2023-11-21T04:50:10;4.78;;;0.93;;
13051;SDS011;6592;47.484;9.726;2023-11-21T04:52:39;4.30;;;1.15;;
13051;SDS011;6592;47.484;9.726;2023-11-21T04:55:08;3.25;;;0.98;;
13051;SDS011;6592;47.484;9.726;2023-11-21T04:57:37;6.00;;;0.90;;
13051;SDS011;6592;47.484;9.726;2023-11-21T05:00:09;7.80;;;1.13;;
13051;SDS011;6592;47.484;9.726;2023-11-21T05:02:39;6.97;;;0.98;;
13051;SDS011;6592;47.484;9.726;2023-11-21T05:05:11;7.30;;;1.27;;
13051;SDS011;6592;47.484;9.726;2023-11-21T05:07:41;5.40;;;1.10;;
13051;SDS011;6592;47.484;9.726;2023-11-21T05:10:09;5.38;;;0.98;;
13051;SDS011;6592;47.484;9.726;2023-11-21T05:15:10;6.32;;;1.00;;
13051;SDS011;6592;47.484;9.726;2023-11-21T05:17:41;4.15;;;1.20;;
13051;SDS011;6592;47.484;9.726;2023-11-21T05:20:13;5.43;;;1.20;;
13051;SDS011;6592;47.484;9.726;2023-11-21T05:22:44;7.88;;;1.40;;
13051;SDS011;6592;47.484;9.726;2023-11-21T05:25:13;2.58;;;0.98;;
13051;SDS011;6592;47.484;9.726;2023-11-21T05:27:43;6.13;;;1.10;;
13051;SDS011;6592;47.484;9.726;2023-11-21T05:30:13;4.63;;;1.20;;
13051;SDS011;6592;47.484;9.726;2023-11-21T05:32:41;3.63;;;1.00;;
13051;SDS011;6592;47.484;9.726;2023-11-21T05:35:12;5.97;;;1.20;;
13051;SDS011;6592;47.484;9.726;2023-11-21T05:37:43;2.88;;;0.73;;
13051;SDS011;6592;47.484;9.726;2023-11-21T05:40:13;2.03;;;0.85;;
13051;SDS011;6592;47.484;9.726;2023-11-21T05:42:43;6.22;;;0.80;;
13051;SDS011;6592;47.484;9.726;2023-11-21T05:45:13;5.55;;;0.90;;
13051;SDS011;6592;47.484;9.726;2023-11-21T05:47:42;7.30;;;2.00;;
13051;SDS011;6592;47.484;9.726;2023-11-21T05:50:15;5.05;;;1.00;;
13051;SDS011;6592;47.484;9.726;2023-11-21T05:52:45;3.65;;;1.20;;
13051;SDS011;6592;47.484;9.726;2023-11-21T05:55:15;5.43;;;1.50;;
13051;SDS011;6592;47.484;9.726;2023-11-21T05:57:44;4.13;;;1.52;;
13051;SDS011;6592;47.484;9.726;2023-11-21T06:00:14;4.13;;;1.30;;
13051;SDS011;6592;47.484;9.726;2023-11-21T06:02:48;6.05;;;1.95;;
13051;SDS011;6592;47.484;9.726;2023-11-21T06:05:21;5.65;;;1.70;;
13051;SDS011;6592;47.484;9.726;2023-11-21T06:07:51;4.72;;;1.80;;
13051;SDS011;6592;47.484;9.726;2023-11-21T06:10:21;4.55;;;1.70;;
13051;SDS011;6592;47.484;9.726;2023-11-21T06:12:51;5.50;;;1.90;;
13051;SDS011;6592;47.484;9.726;2023-11-21T06:15:20;5.85;;;1.92;;
13051;SDS011;6592;47.484;9.726;2023-11-21T06:17:49;6.20;;;2.10;;
13051;SDS011;6592;47.484;9.726;2023-11-21T06:20:21;7.07;;;2.15;;
13051;SDS011;6592;47.484;9.726;2023-11-21T06:22:50;7.70;;;2.15;;
13051;SDS011;6592;47.484;9.726;2023-11-21T06:25:19;8.45;;;2.10;;
13051;SDS011;6592;47.484;9.726;2023-11-21T06:27:48;6.03;;;1.83;;
13051;SDS011;6592;47.484;9.726;2023-11-21T06:30:16;4.57;;;1.15;;
13051;SDS011;6592;47.484;9.726;2023-11-21T06:32:45;5.05;;;1.50;;
13051;SDS011;6592;47.484;9.726;2023-11-21T06:35:14;4.60;;;1.63;;
13051;SDS011;6592;47.484;9.726;2023-11-21T06:37:45;6.97;;;1.90;;
13051;SDS011;6592;47.484;9.726;2023-11-21T06:40:16;5.72;;;1.15;;
13051;SDS011;6592;47.484;9.726;2023-11-21T06:42:47;4.10;;;1.50;;
13051;SDS011;6592;47.484;9.726;2023-11-21T06:45:16;3.08;;;1.13;;
13051;SDS011;6592;47.484;9.726;2023-11-21T06:47:45;6.05;;;1.55;;
13051;SDS011;6592;47.484;9.726;2023-11-21T06:50:13;5.35;;;1.30;;
13051;SDS011;6592;47.484;9.726;2023-11-21T06:52:42;3.33;;;1.30;;
13051;SDS011;6592;47.484;9.726;2023-11-21T06:55:12;6.93;;;1.30;;
13051;SDS011;6592;47.484;9.726;2023-11-21T06:57:40;9.05;;;1.70;;
13051;SDS011;6592;47.484;9.726;2023-11-21T07:00:09;4.68;;;1.80;;
13051;SDS011;6592;47.484;9.726;2023-11-21T07:02:38;4.60;;;1.35;;
13051;SDS011;6592;47.484;9.726;2023-11-21T07:05:07;2.95;;;1.50;;
13051;SDS011;6592;47.484;9.726;2023-11-21T07:07:36;7.25;;;1.52;;
13051;SDS011;6592;47.484;9.726;2023-11-21T07:10:05;4.55;;;1.40;;
13051;SDS011;6592;47.484;9.726;2023-11-21T07:12:37;4.15;;;1.38;;
13051;SDS011;6592;47.484;9.726;2023-11-21T07:15:06;4.28;;;1.48;;
13051;SDS011;6592;47.484;9.726;2023-11-21T07:17:36;2.92;;;1.42;;
13051;SDS011;6592;47.484;9.726;2023-11-21T07:20:07;5.27;;;1.53;;
13051;SDS011;6592;47.484;9.726;2023-11-21T07:22:38;5.45;;;1.70;;
13051;SDS011;6592;47.484;9.726;2023-11-21T07:25:07;5.97;;;1.63;;
13051;SDS011;6592;47.484;9.726;2023-11-21T07:27:38;6.93;;;1.60;;
13051;SDS011;6592;47.484;9.726;2023-11-21T07:30:06;5.47;;;1.80;;
13051;SDS011;6592;47.484;9.726;2023-11-21T07:32:37;4.70;;;1.80;;
13051;SDS011;6592;47.484;9.726;2023-11-21T07:35:07;6.55;;;1.85;;
13051;SDS011;6592;47.484;9.726;2023-11-21T07:37:35;6.82;;;1.98;;
13051;SDS011;6592;47.484;9.726;2023-11-21T07:40:04;6.38;;;2.10;;
13051;SDS011;6592;47.484;9.726;2023-11-21T07:42:35;4.70;;;1.67;;
13051;SDS011;6592;47.484;9.726;2023-11-21T07:45:05;5.47;;;2.30;;
13051;SDS011;6592;47.484;9.726;2023-11-21T07:47:34;6.75;;;2.40;;
13051;SDS011;6592;47.484;9.726;2023-11-21T07:50:03;8.82;;;3.05;;
13051;SDS011;6592;47.484;9.726;2023-11-21T07:52:34;7.63;;;2.80;;
13051;SDS011;6592;47.484;9.726;2023-11-21T07:55:03;11.50;;;2.70;;
13051;SDS011;6592;47.484;9.726;2023-11-21T07:57:31;7.57;;;2.35;;
13051;SDS011;6592;47.484;9.726;2023-11-21T08:00:00;5.97;;;2.25;;
13051;SDS011;6592;47.484;9.726;2023-11-21T08:02:31;6.80;;;1.95;;
13051;SDS011;6592;47.484;9.726;2023-11-21T08:05:01;4.82;;;1.90;;
13051;SDS011;6592;47.484;9.726;2023-11-21T08:07:29;3.58;;;1.40;;
13051;SDS011;6592;47.484;9.726;2023-11-21T08:09:57;4.03;;;1.30;;
13051;SDS011;6592;47.484;9.726;2023-11-21T08:12:26;3.17;;;1.23;;
13051;SDS011;6592;47.484;9.726;2023-11-21T08:14:54;3.75;;;1.40;;
13051;SDS011;6592;47.484;9.726;2023-11-21T08:17:23;4.55;;;1.80;;
13051;SDS011;6592;47.484;9.726;2023-11-21T08:19:53;5.78;;;2.55;;
13051;SDS011;6592;47.484;9.726;2023-11-21T08:22:21;7.15;;;2.60;;
13051;SDS011;6592;47.484;9.726;2023-11-21T08:24:49;9.50;;;2.40;;
13051;SDS011;6592;47.484;9.726;2023-11-21T08:27:18;10.00;;;2.65;;
13051;SDS011;6592;47.484;9.726;2023-11-21T08:29:46;10.13;;;2.47;;
13051;SDS011;6592;47.484;9.726;2023-11-21T08:32:14;6.07;;;2.53;;
13051;SDS011;6592;47.484;9.726;2023-11-21T08:34:42;4.82;;;2.03;;
13051;SDS011;6592;47.484;9.726;2023-11-21T08:37:15;5.53;;;2.10;;
13051;SDS011;6592;47.484;9.726;2023-11-21T08:39:44;5.30;;;1.48;;
13051;SDS011;6592;47.484;9.726;2023-11-21T08:42:12;3.90;;;1.35;;
13051;SDS011;6592;47.484;9.726;2023-11-21T08:44:40;4.25;;;1.27;;
13051;SDS011;6592;47.484;9.726;2023-11-21T08:47:09;4.45;;;1.40;;
13051;SDS011;6592;47.484;9.726;2023-11-21T08:49:37;4.70;;;1.42;;
13051;SDS011;6592;47.484;9.726;2023-11-21T08:52:05;4.18;;;1.50;;
13051;SDS011;6592;47.484;9.726;2023-11-21T08:54:35;4.75;;;1.60;;
13051;SDS011;6592;47.484;9.726;2023-11-21T08:57:03;3.60;;;1.55;;
13051;SDS011;6592;47.484;9.726;2023-11-21T08:59:32;6.75;;;1.65;;
13051;SDS011;6592;47.484;9.726;2023-11-21T09:02:00;4.80;;;1.95;;
13051;SDS011;6592;47.484;9.726;2023-11-21T09:04:29;63.25;;;22.00;;
13051;SDS011;6592;47.484;9.726;2023-11-21T09:06:57;17.67;;;7.63;;
13051;SDS011;6592;47.484;9.726;2023-11-21T09:09:26;7.93;;;3.88;;
13051;SDS011;6592;47.484;9.726;2023-11-21T09:11:57;5.50;;;2.60;;
13051;SDS011;6592;47.484;9.726;2023-11-21T09:14:27;3.13;;;1.58;;
13051;SDS011;6592;47.484;9.726;2023-11-21T09:16:55;4.15;;;1.30;;
13051;SDS011;6592;47.484;9.726;2023-11-21T09:19:24;3.92;;;2.20;;
13051;SDS011;6592;47.484;9.726;2023-11-21T09:21:52;6.47;;;4.80;;
13051;SDS011;6592;47.484;9.726;2023-11-21T09:24:21;8.23;;;4.07;;
13051;SDS011;6592;47.484;9.726;2023-11-21T09:26:49;4.35;;;2.17;;
13051;SDS011;6592;47.484;9.726;2023-11-21T09:29:19;2.70;;;1.70;;
13051;SDS011;6592;47.484;9.726;2023-11-21T09:31:48;2.38;;;0.90;;
13051;SDS011;6592;47.484;9.726;2023-11-21T09:34:17;4.78;;;1.60;;
13051;SDS011;6592;47.484;9.726;2023-11-21T09:36:47;4.03;;;1.55;;
13051;SDS011;6592;47.484;9.726;2023-11-21T09:39:16;2.78;;;0.90;;
13051;SDS011;6592;47.484;9.726;2023-11-21T09:41:46;4.97;;;1.08;;
13051;SDS011;6592;47.484;9.726;2023-11-21T09:44:20;3.13;;;1.65;;
13051;SDS011;6592;47.484;9.726;2023-11-21T09:46:54;4.55;;;1.35;;
13051;SDS011;6592;47.484;9.726;2023-11-21T09:49:27;6.68;;;1.83;;
13051;SDS011;6592;47.484;9.726;2023-11-21T09:52:01;5.97;;;2.40;;
13051;SDS011;6592;47.484;9.726;2023-11-21T09:54:30;4.47;;;2.10;;
13051;SDS011;6592;47.484;9.726;2023-11-21T09:57:00;6.82;;;2.28;;
13051;SDS011;6592;47.484;9.726;2023-11-21T09:59:31;4.85;;;2.22;;
13051;SDS011;6592;47.484;9.726;2023-11-21T10:02:00;7.75;;;2.25;;
13051;SDS011;6592;47.484;9.726;2023-11-21T10:04:30;5.75;;;2.50;;
13051;SDS011;6592;47.484;9.726;2023-11-21T10:06:59;9.18;;;4.53;;
13051;SDS011;6592;47.484;9.726;2023-11-21T10:09:30;6.57;;;2.33;;
13051;SDS011;6592;47.484;9.726;2023-11-21T10:11:59;6.53;;;3.35;;
13051;SDS011;6592;47.484;9.726;2023-11-21T10:14:30;7.07;;;1.77;;
13051;SDS011;6592;47.484;9.726;2023-11-21T10:16:59;4.28;;;1.70;;
13051;SDS011;6592;47.484;9.726;2023-11-21T10:19:28;5.70;;;3.75;;
13051;SDS011;6592;47.484;9.726;2023-11-21T10:21:56;4.40;;;2.63;;
13051;SDS011;6592;47.484;9.726;2023-11-21T10:24:26;6.68;;;1.73;;
13051;SDS011;6592;47.484;9.726;2023-11-21T10:27:06;5.72;;;3.20;;
13051;SDS011;6592;47.484;9.726;2023-11-21T10:29:36;4.80;;;2.80;;
13051;SDS011;6592;47.484;9.726;2023-11-21T10:32:06;5.13;;;2.95;;
13051;SDS011;6592;47.484;9.726;2023-11-21T10:34:35;6.20;;;3.13;;
13051;SDS011;6592;47.484;9.726;2023-11-21T10:37:11;4.03;;;1.30;;
13051;SDS011;6592;47.484;9.726;2023-11-21T10:39:40;5.05;;;1.70;;
13051;SDS011;6592;47.484;9.726;2023-11-21T10:42:10;3.58;;;1.45;;
13051;SDS011;6592;47.484;9.726;2023-11-21T10:44:40;3.65;;;1.30;;
13051;SDS011;6592;47.484;9.726;2023-11-21T10:47:11;9.00;;;1.10;;
13051;SDS011;6592;47.484;9.726;2023-11-21T10:49:39;5.18;;;1.48;;
13051;SDS011;6592;47.484;9.726;2023-11-21T10:52:09;3.67;;;0.95;;
13051;SDS011;6592;47.484;9.726;2023-11-21T10:54:43;3.60;;;1.58;;
13051;SDS011;6592;47.484;9.726;2023-11-21T10:57:12;3.55;;;1.42;;
13051;SDS011;6592;47.484;9.726;2023-11-21T10:59:47;3.33;;;1.27;;
13051;SDS011;6592;47.484;9.726;2023-11-21T11:02:19;3.05;;;1.48;;
13051;SDS011;6592;47.484;9.726;2023-11-21T11:04:55;4.18;;;1.30;;
13051;SDS011;6592;47.484;9.726;2023-11-21T11:07:26;2.53;;;1.00;;
13051;SDS011;6592;47.484;9.726;2023-11-21T11:09:58;4.93;;;1.27;;
13051;SDS011;6592;47.484;9.726;2023-11-21T11:12:26;3.65;;;1.50;;
13051;SDS011;6592;47.484;9.726;2023-11-21T11:14:56;2.92;;;1.25;;
13051;SDS011;6592;47.484;9.726;2023-11-21T11:17:26;4.10;;;1.05;;
13051;SDS011;6592;47.484;9.726;2023-11-21T11:19:55;2.53;;;0.93;;
13051;SDS011;6592;47.484;9.726;2023-11-21T11:22:28;4.65;;;1.92;;
13051;SDS011;6592;47.484;9.726;2023-11-21T11:25:13;4.82;;;2.63;;
13051;SDS011;6592;47.484;9.726;2023-11-21T11:27:54;4.75;;;2.67;;
13051;SDS011;6592;47.484;9.726;2023-11-21T11:30:32;2.05;;;0.90;;
13051;SDS011;6592;47.484;9.726;2023-11-21T11:35:42;2.08;;;0.70;;
13051;SDS011;6592;47.484;9.726;2023-11-21T11:38:21;1.85;;;0.70;;
13051;SDS011;6592;47.484;9.726;2023-11-21T11:40:52;6.40;;;0.90;;
13051;SDS011;6592;47.484;9.726;2023-11-21T11:43:24;1.52;;;0.80;;
13051;SDS011;6592;47.484;9.726;2023-11-21T11:45:56;4.75;;;0.80;;
13051;SDS011;6592;47.484;9.726;2023-11-21T11:48:26;2.20;;;0.73;;
13051;SDS011;6592;47.484;9.726;2023-11-21T11:51:01;2.83;;;0.80;;
13051;SDS011;6592;47.484;9.726;2023-11-21T11:53:37;2.08;;;0.80;;
13051;SDS011;6592;47.484;9.726;2023-11-21T11:56:24;2.30;;;0.82;;
13051;SDS011;6592;47.484;9.726;2023-11-21T11:58:54;1.48;;;0.60;;
13051;SDS011;6592;47.484;9.726;2023-11-21T12:01:25;1.30;;;0.50;;
13051;SDS011;6592;47.484;9.726;2023-11-21T12:07:01;2.78;;;0.85;;
13051;SDS011;6592;47.484;9.726;2023-11-21T12:09:30;1.45;;;0.60;;
13051;SDS011;6592;47.484;9.726;2023-11-21T12:11:59;1.63;;;0.70;;
13051;SDS011;6592;47.484;9.726;2023-11-21T12:14:27;0.85;;;0.43;;
13051;SDS011;6592;47.484;9.726;2023-11-21T12:16:57;2.85;;;0.85;;
13051;SDS011;6592;47.484;9.726;2023-11-21T12:19:26;1.65;;;0.75;;
13051;SDS011;6592;47.484;9.726;2023-11-21T12:21:54;3.55;;;1.27;;
13051;SDS011;6592;47.484;9.726;2023-11-21T12:24:23;2.70;;;1.08;;
13051;SDS011;6592;47.484;9.726;2023-11-21T12:26:52;2.80;;;1.20;;
13051;SDS011;6592;47.484;9.726;2023-11-21T12:29:20;2.70;;;0.90;;
13051;SDS011;6592;47.484;9.726;2023-11-21T12:31:49;1.73;;;0.80;;
13051;SDS011;6592;47.484;9.726;2023-11-21T12:34:19;3.25;;;1.10;;
13051;SDS011;6592;47.484;9.726;2023-11-21T12:36:47;2.65;;;0.95;;
13051;SDS011;6592;47.484;9.726;2023-11-21T12:39:15;2.75;;;0.43;;
13051;SDS011;6592;47.484;9.726;2023-11-21T12:41:44;0.95;;;0.28;;
13051;SDS011;6592;47.484;9.726;2023-11-21T12:44:12;1.08;;;0.40;;
13051;SDS011;6592;47.484;9.726;2023-11-21T12:46:42;0.70;;;0.30;;
13051;SDS011;6592;47.484;9.726;2023-11-21T12:49:12;1.38;;;0.30;;
13051;SDS011;6592;47.484;9.726;2023-11-21T12:54:14;1.05;;;0.30;;
13051;SDS011;6592;47.484;9.726;2023-11-21T12:56:44;2.95;;;0.47;;
13051;SDS011;6592;47.484;9.726;2023-11-21T12:59:15;1.20;;;0.50;;
13051;SDS011;6592;47.484;9.726;2023-11-21T13:01:44;2.13;;;0.43;;
13051;SDS011;6592;47.484;9.726;2023-11-21T13:04:16;2.55;;;0.70;;
13051;SDS011;6592;47.484;9.726;2023-11-21T13:06:45;1.65;;;0.60;;
13051;SDS011;6592;47.484;9.726;2023-11-21T13:09:15;2.93;;;0.70;;
13051;SDS011;6592;47.484;9.726;2023-11-21T13:11:48;3.55;;;0.80;;
13051;SDS011;6592;47.484;9.726;2023-11-21T13:14:16;9.13;;;2.78;;
13051;SDS011;6592;47.484;9.726;2023-11-21T13:16:45;4.25;;;1.65;;
13051;SDS011;6592;47.484;9.726;2023-11-21T13:19:13;3.15;;;1.40;;
13051;SDS011;6592;47.484;9.726;2023-11-21T13:21:42;3.42;;;0.90;;
13051;SDS011;6592;47.484;9.726;2023-11-21T13:24:12;2.08;;;1.00;;
13051;SDS011;6592;47.484;9.726;2023-11-21T13:26:40;3.90;;;1.15;;
13051;SDS011;6592;47.484;9.726;2023-11-21T13:29:09;3.88;;;1.10;;
13051;SDS011;6592;47.484;9.726;2023-11-21T13:31:39;4.93;;;1.17;;
13051;SDS011;6592;47.484;9.726;2023-11-21T13:34:08;2.25;;;1.00;;
13051;SDS011;6592;47.484;9.726;2023-11-21T13:36:46;2.40;;;0.90;;
13051;SDS011;6592;47.484;9.726;2023-11-21T13:39:16;2.63;;;1.25;;
13051;SDS011;6592;47.484;9.726;2023-11-21T13:41:45;2.63;;;1.20;;
13051;SDS011;6592;47.484;9.726;2023-11-21T13:44:21;2.22;;;1.00;;
13051;SDS011;6592;47.484;9.726;2023-11-21T13:47:00;1.17;;;0.65;;
13051;SDS011;6592;47.484;9.726;2023-11-21T13:49:30;2.22;;;1.00;;
13051;SDS011;6592;47.484;9.726;2023-11-21T13:52:02;2.97;;;1.40;;
13051;SDS011;6592;47.484;9.726;2023-11-21T13:54:34;8.55;;;2.20;;
13051;SDS011;6592;47.484;9.726;2023-11-21T13:57:03;7.55;;;2.60;;
13051;SDS011;6592;47.484;9.726;2023-11-21T13:59:32;5.18;;;1.92;;
13051;SDS011;6592;47.484;9.726;2023-11-21T14:02:01;3.65;;;1.48;;
13051;SDS011;6592;47.484;9.726;2023-11-21T14:04:43;6.13;;;2.20;;
13051;SDS011;6592;47.484;9.726;2023-11-21T14:07:21;5.25;;;2.10;;
13051;SDS011;6592;47.484;9.726;2023-11-21T14:10:01;2.92;;;1.20;;
13051;SDS011;6592;47.484;9.726;2023-11-21T14:12:31;3.90;;;1.52;;
13051;SDS011;6592;47.484;9.726;2023-11-21T14:15:05;3.67;;;1.60;;
13051;SDS011;6592;47.484;9.726;2023-11-21T14:17:36;5.90;;;2.47;;
13051;SDS011;6592;47.484;9.726;2023-11-21T14:20:07;9.38;;;3.80;;
13051;SDS011;6592;47.484;9.726;2023-11-21T14:22:42;8.52;;;3.92;;
13051;SDS011;6592;47.484;9.726;2023-11-21T14:25:12;7.75;;;3.53;;
13051;SDS011;6592;47.484;9.726;2023-11-21T14:27:41;5.73;;;2.47;;
13051;SDS011;6592;47.484;9.726;2023-11-21T14:30:10;10.32;;;4.38;;
13051;SDS011;6592;47.484;9.726;2023-11-21T14:32:40;9.82;;;4.30;;
13051;SDS011;6592;47.484;9.726;2023-11-21T14:35:09;7.22;;;3.72;;
13051;SDS011;6592;47.484;9.726;2023-11-21T14:37:37;7.93;;;3.30;;
13051;SDS011;6592;47.484;9.726;2023-11-21T14:40:07;4.55;;;2.08;;
13051;SDS011;6592;47.484;9.726;2023-11-21T14:42:37;3.72;;;1.67;;
13051;SDS011;6592;47.484;9.726;2023-11-21T14:45:07;4.60;;;2.17;;
13051;SDS011;6592;47.484;9.726;2023-11-21T14:47:38;5.55;;;2.50;;
13051;SDS011;6592;47.484;9.726;2023-11-21T14:50:12;6.28;;;2.20;;
13051;SDS011;6592;47.484;9.726;2023-11-21T14:52:54;16.73;;;5.95;;
13051;SDS011;6592;47.484;9.726;2023-11-21T14:55:26;11.02;;;4.70;;
13051;SDS011;6592;47.484;9.726;2023-11-21T14:58:00;9.10;;;4.93;;
13051;SDS011;6592;47.484;9.726;2023-11-21T15:00:31;9.27;;;4.28;;
13051;SDS011;6592;47.484;9.726;2023-11-21T15:03:04;6.55;;;3.15;;
13051;SDS011;6592;47.484;9.726;2023-11-21T15:05:35;4.68;;;2.40;;
13051;SDS011;6592;47.484;9.726;2023-11-21T15:08:05;6.18;;;2.78;;
13051;SDS011;6592;47.484;9.726;2023-11-21T15:13:21;16.48;;;6.10;;
13051;SDS011;6592;47.484;9.726;2023-11-21T15:15:53;28.67;;;9.25;;
13051;SDS011;6592;47.484;9.726;2023-11-21T15:18:21;25.00;;;9.65;;
13051;SDS011;6592;47.484;9.726;2023-11-21T15:20:51;11.82;;;5.88;;
13051;SDS011;6592;47.484;9.726;2023-11-21T15:23:21;11.60;;;5.35;;
13051;SDS011;6592;47.484;9.726;2023-11-21T15:25:50;11.32;;;5.03;;
13051;SDS011;6592;47.484;9.726;2023-11-21T15:28:22;30.75;;;14.57;;
13051;SDS011;6592;47.484;9.726;2023-11-21T15:30:51;60.90;;;26.38;;